sensor_id;sensor_type;location;lat;lon;timestamp;pressure;altitude;pressure_sealevel;temperature;humidity
21520;BME280;10921;53.614;9.882;2022-11-11T00:01:02;102346.81;;;14.60;68.85
21520;BME280;10921;53.614;9.882;2022-11-11T00:03:29;102343.25;;;14.60;68.84
21520;BME280;10921;53.614;9.882;2022-11-11T00:06:04;102349.38;;;14.62;69.26
21520;BME280;10921;53.614;9.882;2022-11-11T00:08:31;102351.91;;;14.63;69.18
21520;BME280;10921;53.614;9.882;2022-11-11T00:11:02;102348.75;;;14.58;69.41
21520;BME280;10921;53.614;9.882;2022-11-11T00:13:31;102353.75;;;14.63;69.37
21520;BME280;10921;53.614;9.882;2022-11-11T00:16:05;102359.84;;;14.65;69.43
21520;BME280;10921;53.614;9.882;2022-11-11T00:18:33;102345.81;;;14.61;69.15
21520;BME280;10921;53.614;9.882;2022-11-11T00:21:18;102340.56;;;14.60;69.14
21520;BME280;10921;53.614;9.882;2022-11-11T00:24:29;102351.25;;;14.71;69.01
21520;BME280;10921;53.614;9.882;2022-11-11T00:27:14;102353.22;;;14.69;69.05
21520;BME280;10921;53.614;9.882;2022-11-11T00:29:45;102341.47;;;14.70;69.48
21520;BME280;10921;53.614;9.882;2022-11-11T00:32:14;102346.00;;;14.69;69.12
21520;BME280;10921;53.614;9.882;2022-11-11T00:34:50;102338.78;;;14.70;69.01
21520;BME280;10921;53.614;9.882;2022-11-11T00:37:36;102332.00;;;14.66;69.35
21520;BME280;10921;53.614;9.882;2022-11-11T00:40:03;102334.53;;;14.67;69.06
21520;BME280;10921;53.614;9.882;2022-11-11T00:42:30;102330.88;;;14.68;69.12
21520;BME280;10921;53.614;9.882;2022-11-11T00:44:56;102343.06;;;14.72;69.35
21520;BME280;10921;53.614;9.882;2022-11-11T00:47:23;102336.69;;;14.73;69.22
21520;BME280;10921;53.614;9.882;2022-11-11T00:50:20;102339.25;;;14.75;69.46
21520;BME280;10921;53.614;9.882;2022-11-11T00:53:13;102356.22;;;14.75;69.44
21520;BME280;10921;53.614;9.882;2022-11-11T00:55:40;102353.06;;;14.70;69.57
21520;BME280;10921;53.614;9.882;2022-11-11T00:58:06;102353.94;;;14.71;69.52
21520;BME280;10921;53.614;9.882;2022-11-11T01:00:33;102334.34;;;14.59;69.71
21520;BME280;10921;53.614;9.882;2022-11-11T01:03:00;102339.91;;;14.67;69.60
21520;BME280;10921;53.614;9.882;2022-11-11T01:05:27;102342.34;;;14.70;69.52
21520;BME280;10921;53.614;9.882;2022-11-11T01:07:54;102341.59;;;14.68;69.86
21520;BME280;10921;53.614;9.882;2022-11-11T01:10:21;102336.53;;;14.65;69.72
21520;BME280;10921;53.614;9.882;2022-11-11T01:13:17;102350.00;;;14.75;69.84
21520;BME280;10921;53.614;9.882;2022-11-11T01:15:45;102360.16;;;14.92;69.45
21520;BME280;10921;53.614;9.882;2022-11-11T01:18:14;102373.69;;;14.81;69.33
21520;BME280;10921;53.614;9.882;2022-11-11T01:20:42;102370.13;;;14.81;69.39
21520;BME280;10921;53.614;9.882;2022-11-11T01:23:10;102373.69;;;14.81;69.73
21520;BME280;10921;53.614;9.882;2022-11-11T01:25:39;102366.59;;;14.80;69.85
21520;BME280;10921;53.614;9.882;2022-11-11T01:28:07;102352.88;;;14.83;69.60
21520;BME280;10921;53.614;9.882;2022-11-11T01:30:35;102362.94;;;14.81;69.84
21520;BME280;10921;53.614;9.882;2022-11-11T01:33:02;102354.88;;;14.81;69.78
21520;BME280;10921;53.614;9.882;2022-11-11T01:35:29;102356.28;;;14.85;69.73
21520;BME280;10921;53.614;9.882;2022-11-11T01:37:57;102348.34;;;14.84;69.64
21520;BME280;10921;53.614;9.882;2022-11-11T01:40:24;102357.97;;;14.86;69.67
21520;BME280;10921;53.614;9.882;2022-11-11T01:43:07;102361.41;;;14.88;69.85
21520;BME280;10921;53.614;9.882;2022-11-11T01:48:25;102355.28;;;14.86;69.93
21520;BME280;10921;53.614;9.882;2022-11-11T01:51:20;102354.44;;;14.86;70.05
21520;BME280;10921;53.614;9.882;2022-11-11T01:53:54;102342.72;;;14.87;69.83
21520;BME280;10921;53.614;9.882;2022-11-11T01:56:22;102347.50;;;14.83;69.72
21520;BME280;10921;53.614;9.882;2022-11-11T01:58:50;102336.31;;;14.78;70.03
21520;BME280;10921;53.614;9.882;2022-11-11T02:01:19;102342.00;;;14.85;69.73
21520;BME280;10921;53.614;9.882;2022-11-11T02:03:48;102341.84;;;14.86;69.96
21520;BME280;10921;53.614;9.882;2022-11-11T02:06:36;102343.56;;;14.87;69.86
21520;BME280;10921;53.614;9.882;2022-11-11T02:09:04;102333.38;;;14.81;69.97
21520;BME280;10921;53.614;9.882;2022-11-11T02:11:32;102322.41;;;14.73;70.17
21520;BME280;10921;53.614;9.882;2022-11-11T02:14:18;102322.16;;;14.76;70.07
21520;BME280;10921;53.614;9.882;2022-11-11T02:17:06;102325.69;;;14.76;70.53
21520;BME280;10921;53.614;9.882;2022-11-11T02:19:47;102315.25;;;14.83;70.56
21520;BME280;10921;53.614;9.882;2022-11-11T02:22:22;102313.84;;;14.79;70.49
21520;BME280;10921;53.614;9.882;2022-11-11T02:24:51;102317.75;;;14.75;70.33
21520;BME280;10921;53.614;9.882;2022-11-11T02:27:19;102327.53;;;14.76;70.40
21520;BME280;10921;53.614;9.882;2022-11-11T02:29:49;102323.72;;;14.78;70.49
21520;BME280;10921;53.614;9.882;2022-11-11T02:32:16;102308.13;;;14.72;70.47
21520;BME280;10921;53.614;9.882;2022-11-11T02:34:42;102312.78;;;14.70;70.47
21520;BME280;10921;53.614;9.882;2022-11-11T02:37:09;102321.16;;;14.77;70.42
21520;BME280;10921;53.614;9.882;2022-11-11T02:39:41;102313.75;;;14.69;70.37
21520;BME280;10921;53.614;9.882;2022-11-11T02:42:29;102327.47;;;14.66;70.11
21520;BME280;10921;53.614;9.882;2022-11-11T02:44:56;102312.72;;;14.61;70.24
21520;BME280;10921;53.614;9.882;2022-11-11T02:47:24;102326.28;;;14.59;70.34
21520;BME280;10921;53.614;9.882;2022-11-11T02:49:51;102320.44;;;14.54;70.27
21520;BME280;10921;53.614;9.882;2022-11-11T02:52:18;102337.56;;;14.53;70.32
21520;BME280;10921;53.614;9.882;2022-11-11T02:54:45;102320.78;;;14.40;70.48
21520;BME280;10921;53.614;9.882;2022-11-11T02:57:12;102334.44;;;14.37;70.71
21520;BME280;10921;53.614;9.882;2022-11-11T02:59:40;102341.63;;;14.36;70.64
21520;BME280;10921;53.614;9.882;2022-11-11T03:02:07;102363.00;;;14.38;70.81
21520;BME280;10921;53.614;9.882;2022-11-11T03:04:34;102356.06;;;14.35;70.80
21520;BME280;10921;53.614;9.882;2022-11-11T03:07:00;102364.38;;;14.32;71.01
21520;BME280;10921;53.614;9.882;2022-11-11T03:09:27;102355.97;;;14.26;71.08
21520;BME280;10921;53.614;9.882;2022-11-11T03:11:54;102366.84;;;14.24;71.38
21520;BME280;10921;53.614;9.882;2022-11-11T03:14:20;102363.56;;;14.21;71.17
21520;BME280;10921;53.614;9.882;2022-11-11T03:16:47;102358.59;;;14.16;71.29
21520;BME280;10921;53.614;9.882;2022-11-11T03:19:32;102366.53;;;14.18;71.54
21520;BME280;10921;53.614;9.882;2022-11-11T03:21:59;102366.41;;;14.08;71.74
21520;BME280;10921;53.614;9.882;2022-11-11T03:24:46;102345.06;;;14.06;71.74
21520;BME280;10921;53.614;9.882;2022-11-11T03:27:31;102337.97;;;14.05;71.90
21520;BME280;10921;53.614;9.882;2022-11-11T03:29:57;102334.97;;;13.99;71.97
21520;BME280;10921;53.614;9.882;2022-11-11T03:32:24;102352.66;;;14.01;71.86
21520;BME280;10921;53.614;9.882;2022-11-11T03:34:51;102357.78;;;14.04;72.08
21520;BME280;10921;53.614;9.882;2022-11-11T03:37:17;102352.78;;;14.00;72.26
21520;BME280;10921;53.614;9.882;2022-11-11T03:40:02;102356.31;;;14.00;72.18
21520;BME280;10921;53.614;9.882;2022-11-11T03:42:29;102366.81;;;14.03;72.15
21520;BME280;10921;53.614;9.882;2022-11-11T03:44:55;102355.34;;;13.90;72.00
21520;BME280;10921;53.614;9.882;2022-11-11T03:47:22;102375.00;;;13.91;72.40
21520;BME280;10921;53.614;9.882;2022-11-11T03:49:48;102352.34;;;13.84;72.31
21520;BME280;10921;53.614;9.882;2022-11-11T03:52:15;102370.16;;;13.85;72.38
21520;BME280;10921;53.614;9.882;2022-11-11T03:54:41;102382.94;;;13.92;72.33
21520;BME280;10921;53.614;9.882;2022-11-11T03:57:08;102383.31;;;13.88;72.30
21520;BME280;10921;53.614;9.882;2022-11-11T03:59:53;102375.16;;;13.78;72.53
21520;BME280;10921;53.614;9.882;2022-11-11T04:02:19;102377.25;;;13.75;72.43
21520;BME280;10921;53.614;9.882;2022-11-11T04:05:05;102381.63;;;13.76;72.72
21520;BME280;10921;53.614;9.882;2022-11-11T04:07:50;102378.84;;;13.66;72.64
21520;BME280;10921;53.614;9.882;2022-11-11T04:10:36;102401.41;;;13.75;72.71
21520;BME280;10921;53.614;9.882;2022-11-11T04:13:03;102395.44;;;13.71;72.70
21520;BME280;10921;53.614;9.882;2022-11-11T04:15:49;102394.09;;;13.65;73.04
21520;BME280;10921;53.614;9.882;2022-11-11T04:18:32;102390.22;;;13.58;73.39
21520;BME280;10921;53.614;9.882;2022-11-11T04:21:17;102387.53;;;13.58;73.32
21520;BME280;10921;53.614;9.882;2022-11-11T04:24:02;102395.69;;;13.57;73.40
21520;BME280;10921;53.614;9.882;2022-11-11T04:26:49;102388.38;;;13.48;73.80
21520;BME280;10921;53.614;9.882;2022-11-11T04:29:16;102382.53;;;13.43;73.76
21520;BME280;10921;53.614;9.882;2022-11-11T04:32:01;102389.22;;;13.48;74.23
21520;BME280;10921;53.614;9.882;2022-11-11T04:34:51;102382.66;;;13.41;74.09
21520;BME280;10921;53.614;9.882;2022-11-11T04:37:19;102397.66;;;13.44;73.87
21520;BME280;10921;53.614;9.882;2022-11-11T04:39:46;102401.53;;;13.40;73.83
21520;BME280;10921;53.614;9.882;2022-11-11T04:42:32;102399.72;;;13.40;74.06
21520;BME280;10921;53.614;9.882;2022-11-11T04:45:00;102406.06;;;13.39;74.18
21520;BME280;10921;53.614;9.882;2022-11-11T04:48:11;102403.03;;;13.44;74.54
21520;BME280;10921;53.614;9.882;2022-11-11T04:50:40;102396.41;;;13.36;74.17
21520;BME280;10921;53.614;9.882;2022-11-11T04:53:10;102393.34;;;13.30;74.16
21520;BME280;10921;53.614;9.882;2022-11-11T04:55:38;102410.44;;;13.29;74.55
21520;BME280;10921;53.614;9.882;2022-11-11T04:58:26;102396.53;;;13.24;74.51
21520;BME280;10921;53.614;9.882;2022-11-11T05:00:53;102390.34;;;13.23;74.49
21520;BME280;10921;53.614;9.882;2022-11-11T05:03:20;102390.94;;;13.27;74.35
21520;BME280;10921;53.614;9.882;2022-11-11T05:05:54;102396.66;;;13.22;74.57
21520;BME280;10921;53.614;9.882;2022-11-11T05:08:42;102390.56;;;13.20;74.78
21520;BME280;10921;53.614;9.882;2022-11-11T05:11:23;102373.88;;;13.17;74.73
21520;BME280;10921;53.614;9.882;2022-11-11T05:13:50;102375.34;;;13.21;74.75
21520;BME280;10921;53.614;9.882;2022-11-11T05:16:39;102381.44;;;13.23;74.80
21520;BME280;10921;53.614;9.882;2022-11-11T05:19:24;102374.38;;;13.22;74.39
21520;BME280;10921;53.614;9.882;2022-11-11T05:24:39;102366.06;;;13.14;74.82
21520;BME280;10921;53.614;9.882;2022-11-11T05:27:24;102377.59;;;13.14;74.43
21520;BME280;10921;53.614;9.882;2022-11-11T05:29:51;102385.66;;;13.14;74.41
21520;BME280;10921;53.614;9.882;2022-11-11T05:32:19;102394.81;;;13.12;74.51
21520;BME280;10921;53.614;9.882;2022-11-11T05:34:46;102385.63;;;13.03;74.50
21520;BME280;10921;53.614;9.882;2022-11-11T05:37:13;102390.66;;;12.96;74.78
21520;BME280;10921;53.614;9.882;2022-11-11T05:39:40;102392.81;;;13.02;74.52
21520;BME280;10921;53.614;9.882;2022-11-11T05:42:07;102405.59;;;12.99;74.75
21520;BME280;10921;53.614;9.882;2022-11-11T05:44:33;102393.31;;;12.96;74.83
21520;BME280;10921;53.614;9.882;2022-11-11T05:47:00;102385.53;;;12.93;74.94
21520;BME280;10921;53.614;9.882;2022-11-11T05:49:27;102404.78;;;12.98;74.89
21520;BME280;10921;53.614;9.882;2022-11-11T05:51:54;102367.72;;;12.81;75.21
21520;BME280;10921;53.614;9.882;2022-11-11T05:54:23;102387.69;;;12.88;75.13
21520;BME280;10921;53.614;9.882;2022-11-11T05:56:50;102399.03;;;12.92;75.05
21520;BME280;10921;53.614;9.882;2022-11-11T05:59:16;102401.94;;;12.89;75.12
21520;BME280;10921;53.614;9.882;2022-11-11T06:01:44;102403.19;;;12.96;75.17
21520;BME280;10921;53.614;9.882;2022-11-11T06:04:10;102390.59;;;12.85;75.28
21520;BME280;10921;53.614;9.882;2022-11-11T06:06:43;102414.25;;;12.91;75.22
21520;BME280;10921;53.614;9.882;2022-11-11T06:09:10;102408.16;;;12.89;75.16
21520;BME280;10921;53.614;9.882;2022-11-11T06:11:36;102426.56;;;12.94;75.10
21520;BME280;10921;53.614;9.882;2022-11-11T06:14:03;102426.44;;;12.95;75.18
21520;BME280;10921;53.614;9.882;2022-11-11T06:16:30;102423.03;;;12.93;75.09
21520;BME280;10921;53.614;9.882;2022-11-11T06:18:56;102427.66;;;12.91;75.14
21520;BME280;10921;53.614;9.882;2022-11-11T06:21:25;102424.47;;;12.86;75.30
21520;BME280;10921;53.614;9.882;2022-11-11T06:23:51;102428.84;;;12.87;75.42
21520;BME280;10921;53.614;9.882;2022-11-11T06:26:18;102428.84;;;12.87;75.70
21520;BME280;10921;53.614;9.882;2022-11-11T06:28:52;102431.63;;;12.86;76.15
21520;BME280;10921;53.614;9.882;2022-11-11T06:31:24;102449.31;;;12.88;75.97
21520;BME280;10921;53.614;9.882;2022-11-11T06:33:51;102450.28;;;12.87;75.76
21520;BME280;10921;53.614;9.882;2022-11-11T06:36:20;102467.44;;;12.85;76.03
21520;BME280;10921;53.614;9.882;2022-11-11T06:38:47;102461.47;;;12.81;76.00
21520;BME280;10921;53.614;9.882;2022-11-11T06:41:13;102456.84;;;12.83;76.19
21520;BME280;10921;53.614;9.882;2022-11-11T06:43:41;102479.75;;;12.87;76.11
21520;BME280;10921;53.614;9.882;2022-11-11T06:46:24;102480.59;;;12.88;76.63
21520;BME280;10921;53.614;9.882;2022-11-11T06:48:52;102469.53;;;12.81;76.33
21520;BME280;10921;53.614;9.882;2022-11-11T06:51:18;102474.47;;;12.75;76.46
21520;BME280;10921;53.614;9.882;2022-11-11T06:53:45;102488.28;;;12.81;76.40
21520;BME280;10921;53.614;9.882;2022-11-11T06:56:11;102495.47;;;12.81;76.44
21520;BME280;10921;53.614;9.882;2022-11-11T06:58:38;102485.94;;;12.77;76.55
21520;BME280;10921;53.614;9.882;2022-11-11T07:01:06;102503.50;;;12.81;77.03
21520;BME280;10921;53.614;9.882;2022-11-11T07:03:34;102492.03;;;12.79;76.95
21520;BME280;10921;53.614;9.882;2022-11-11T07:06:02;102501.31;;;12.86;76.72
21520;BME280;10921;53.614;9.882;2022-11-11T07:08:29;102500.06;;;12.79;76.90
21520;BME280;10921;53.614;9.882;2022-11-11T07:10:56;102499.97;;;12.80;77.20
21520;BME280;10921;53.614;9.882;2022-11-11T07:13:22;102499.97;;;12.80;76.80
21520;BME280;10921;53.614;9.882;2022-11-11T07:15:49;102488.72;;;12.75;77.16
21520;BME280;10921;53.614;9.882;2022-11-11T07:18:16;102499.31;;;12.77;77.21
21520;BME280;10921;53.614;9.882;2022-11-11T07:20:42;102493.84;;;12.78;77.52
21520;BME280;10921;53.614;9.882;2022-11-11T07:23:09;102488.84;;;12.74;77.34
21520;BME280;10921;53.614;9.882;2022-11-11T07:25:35;102494.94;;;12.76;77.72
21520;BME280;10921;53.614;9.882;2022-11-11T07:28:02;102485.78;;;12.67;77.74
21520;BME280;10921;53.614;9.882;2022-11-11T07:30:28;102510.03;;;12.77;77.85
21520;BME280;10921;53.614;9.882;2022-11-11T07:32:55;102508.34;;;12.76;78.01
21520;BME280;10921;53.614;9.882;2022-11-11T07:35:22;102513.91;;;12.73;78.04
21520;BME280;10921;53.614;9.882;2022-11-11T07:37:49;102520.88;;;12.75;78.10
21520;BME280;10921;53.614;9.882;2022-11-11T07:40:17;102520.75;;;12.77;78.19
21520;BME280;10921;53.614;9.882;2022-11-11T07:42:44;102505.25;;;12.69;78.36
21520;BME280;10921;53.614;9.882;2022-11-11T07:45:12;102510.16;;;12.75;78.39
21520;BME280;10921;53.614;9.882;2022-11-11T07:47:41;102520.53;;;12.80;78.69
21520;BME280;10921;53.614;9.882;2022-11-11T07:50:08;102513.81;;;12.74;78.71
21520;BME280;10921;53.614;9.882;2022-11-11T07:52:35;102521.50;;;12.79;78.61
21520;BME280;10921;53.614;9.882;2022-11-11T07:55:04;102514.78;;;12.73;78.61
21520;BME280;10921;53.614;9.882;2022-11-11T07:57:30;102517.34;;;12.75;79.04
21520;BME280;10921;53.614;9.882;2022-11-11T07:59:57;102517.56;;;12.72;79.16
21520;BME280;10921;53.614;9.882;2022-11-11T08:02:23;102527.81;;;12.78;79.02
21520;BME280;10921;53.614;9.882;2022-11-11T08:04:50;102525.03;;;12.79;79.12
21520;BME280;10921;53.614;9.882;2022-11-11T08:07:22;102542.94;;;12.79;79.49
21520;BME280;10921;53.614;9.882;2022-11-11T08:09:50;102526.13;;;12.77;79.40
21520;BME280;10921;53.614;9.882;2022-11-11T08:12:17;102549.91;;;12.81;79.59
21520;BME280;10921;53.614;9.882;2022-11-11T08:15:03;102546.47;;;12.79;79.57
21520;BME280;10921;53.614;9.882;2022-11-11T08:17:38;102548.78;;;12.84;79.88
21520;BME280;10921;53.614;9.882;2022-11-11T08:20:07;102525.47;;;12.73;80.12
21520;BME280;10921;53.614;9.882;2022-11-11T08:22:37;102543.56;;;12.82;80.60
21520;BME280;10921;53.614;9.882;2022-11-11T08:25:10;102549.78;;;12.83;80.76
21520;BME280;10921;53.614;9.882;2022-11-11T08:27:39;102541.97;;;12.80;80.65
21520;BME280;10921;53.614;9.882;2022-11-11T08:30:07;102538.66;;;12.76;80.72
21520;BME280;10921;53.614;9.882;2022-11-11T08:32:34;102566.06;;;12.80;80.83
21520;BME280;10921;53.614;9.882;2022-11-11T08:35:01;102561.56;;;12.80;81.11
21520;BME280;10921;53.614;9.882;2022-11-11T08:37:27;102563.28;;;12.81;81.12
21520;BME280;10921;53.614;9.882;2022-11-11T08:39:54;102571.53;;;12.78;81.13
21520;BME280;10921;53.614;9.882;2022-11-11T08:42:20;102570.47;;;12.81;81.18
21520;BME280;10921;53.614;9.882;2022-11-11T08:44:47;102583.50;;;12.85;81.28
21520;BME280;10921;53.614;9.882;2022-11-11T08:47:14;102563.72;;;12.75;81.25
21520;BME280;10921;53.614;9.882;2022-11-11T08:49:40;102584.25;;;12.87;81.44
21520;BME280;10921;53.614;9.882;2022-11-11T08:52:07;102580.25;;;12.93;81.42
21520;BME280;10921;53.614;9.882;2022-11-11T08:54:34;102578.56;;;12.92;81.33
21520;BME280;10921;53.614;9.882;2022-11-11T08:57:00;102582.31;;;12.89;81.36
21520;BME280;10921;53.614;9.882;2022-11-11T08:59:27;102566.00;;;12.92;81.35
21520;BME280;10921;53.614;9.882;2022-11-11T09:01:53;102566.13;;;12.91;81.62
21520;BME280;10921;53.614;9.882;2022-11-11T09:04:20;102591.88;;;13.04;81.49
21520;BME280;10921;53.614;9.882;2022-11-11T09:07:07;102586.53;;;13.04;81.46
21520;BME280;10921;53.614;9.882;2022-11-11T09:09:35;102585.88;;;13.01;81.51
21520;BME280;10921;53.614;9.882;2022-11-11T09:12:02;102593.47;;;13.07;81.50
21520;BME280;10921;53.614;9.882;2022-11-11T09:14:28;102594.84;;;13.13;81.77
21520;BME280;10921;53.614;9.882;2022-11-11T09:16:55;102591.72;;;13.19;81.43
21520;BME280;10921;53.614;9.882;2022-11-11T09:19:21;102594.28;;;13.20;81.52
21520;BME280;10921;53.614;9.882;2022-11-11T09:21:50;102584.13;;;13.13;81.75
21520;BME280;10921;53.614;9.882;2022-11-11T09:24:17;102593.44;;;13.20;81.34
21520;BME280;10921;53.614;9.882;2022-11-11T09:26:46;102594.81;;;13.25;81.45
21520;BME280;10921;53.614;9.882;2022-11-11T09:29:13;102602.47;;;13.30;81.16
21520;BME280;10921;53.614;9.882;2022-11-11T09:31:40;102609.09;;;13.37;80.87
21520;BME280;10921;53.614;9.882;2022-11-11T09:34:12;102617.78;;;13.41;80.98
21520;BME280;10921;53.614;9.882;2022-11-11T09:36:39;102608.66;;;13.43;80.71
21520;BME280;10921;53.614;9.882;2022-11-11T09:39:06;102605.09;;;13.43;80.37
21520;BME280;10921;53.614;9.882;2022-11-11T09:41:44;102602.53;;;13.41;80.85
21520;BME280;10921;53.614;9.882;2022-11-11T09:46:56;102611.25;;;13.56;80.28
21520;BME280;10921;53.614;9.882;2022-11-11T09:49:40;102616.22;;;13.60;80.01
21520;BME280;10921;53.614;9.882;2022-11-11T09:52:19;102613.31;;;13.63;79.81
21520;BME280;10921;53.614;9.882;2022-11-11T09:55:42;102608.44;;;13.57;79.98
21520;BME280;10921;53.614;9.882;2022-11-11T09:57:56;102624.56;;;13.68;79.82
21520;BME280;10921;53.614;9.882;2022-11-11T10:00:28;102619.41;;;13.65;79.09
21520;BME280;10921;53.614;9.882;2022-11-11T10:03:03;102616.41;;;13.70;79.24
21520;BME280;10921;53.614;9.882;2022-11-11T10:08:25;102613.94;;;13.67;78.88
21520;BME280;10921;53.614;9.882;2022-11-11T10:10:54;102613.09;;;13.66;78.03
21520;BME280;10921;53.614;9.882;2022-11-11T10:13:35;102618.84;;;13.73;78.40
21520;BME280;10921;53.614;9.882;2022-11-11T10:16:22;102638.50;;;13.85;78.19
21520;BME280;10921;53.614;9.882;2022-11-11T10:21:39;102626.69;;;13.87;77.45
21520;BME280;10921;53.614;9.882;2022-11-11T10:24:31;102629.94;;;13.91;76.79
21520;BME280;10921;53.614;9.882;2022-11-11T10:27:13;102631.06;;;13.88;76.73
21520;BME280;10921;53.614;9.882;2022-11-11T10:29:42;102648.50;;;13.94;76.06
21520;BME280;10921;53.614;9.882;2022-11-11T10:32:29;102637.66;;;13.95;76.06
21520;BME280;10921;53.614;9.882;2022-11-11T10:35:31;102650.50;;;14.03;75.65
21520;BME280;10921;53.614;9.882;2022-11-11T10:40:40;102652.44;;;14.12;75.52
21520;BME280;10921;53.614;9.882;2022-11-11T10:43:18;102637.31;;;14.11;75.17
21520;BME280;10921;53.614;9.882;2022-11-11T10:48:22;102624.00;;;14.09;74.88
21520;BME280;10921;53.614;9.882;2022-11-11T10:50:56;102644.75;;;14.19;74.58
21520;BME280;10921;53.614;9.882;2022-11-11T10:58:44;102646.59;;;14.29;73.88
21520;BME280;10921;53.614;9.882;2022-11-11T11:01:19;102636.94;;;14.27;73.42
21520;BME280;10921;53.614;9.882;2022-11-11T11:04:12;102642.31;;;14.38;73.66
21520;BME280;10921;53.614;9.882;2022-11-11T11:06:43;102633.78;;;14.33;73.13
21520;BME280;10921;53.614;9.882;2022-11-11T11:09:29;102647.09;;;14.46;73.35
21520;BME280;10921;53.614;9.882;2022-11-11T11:12:32;102636.00;;;14.50;72.96
21520;BME280;10921;53.614;9.882;2022-11-11T11:15:04;102633.06;;;14.42;72.43
21520;BME280;10921;53.614;9.882;2022-11-11T11:17:57;102643.44;;;14.47;72.29
21520;BME280;10921;53.614;9.882;2022-11-11T11:20:26;102628.41;;;14.33;72.01
21520;BME280;10921;53.614;9.882;2022-11-11T11:22:55;102638.94;;;14.47;72.23
21520;BME280;10921;53.614;9.882;2022-11-11T11:25:25;102646.38;;;14.43;72.08
21520;BME280;10921;53.614;9.882;2022-11-11T11:28:13;102648.19;;;14.54;72.39
21520;BME280;10921;53.614;9.882;2022-11-11T11:30:57;102647.72;;;14.49;72.62
21520;BME280;10921;53.614;9.882;2022-11-11T11:33:24;102650.25;;;14.39;72.05
21520;BME280;10921;53.614;9.882;2022-11-11T11:35:50;102638.75;;;14.37;72.11
21520;BME280;10921;53.614;9.882;2022-11-11T11:38:17;102640.38;;;14.40;72.17
21520;BME280;10921;53.614;9.882;2022-11-11T11:40:49;102637.47;;;14.43;72.11
21520;BME280;10921;53.614;9.882;2022-11-11T11:43:39;102642.19;;;14.39;72.61
21520;BME280;10921;53.614;9.882;2022-11-11T11:49:46;102649.56;;;14.49;72.23
21520;BME280;10921;53.614;9.882;2022-11-11T11:52:21;102642.19;;;14.39;72.30
21520;BME280;10921;53.614;9.882;2022-11-11T11:57:40;102648.59;;;14.50;72.18
21520;BME280;10921;53.614;9.882;2022-11-11T12:03:07;102639.28;;;14.54;72.24
21520;BME280;10921;53.614;9.882;2022-11-11T12:05:44;102631.13;;;14.44;72.37
21520;BME280;10921;53.614;9.882;2022-11-11T12:13:49;102649.78;;;14.46;72.50
21520;BME280;10921;53.614;9.882;2022-11-11T12:16:32;102648.44;;;14.40;72.67
21520;BME280;10921;53.614;9.882;2022-11-11T12:19:40;102651.75;;;14.43;72.89
21520;BME280;10921;53.614;9.882;2022-11-11T12:22:28;102660.78;;;14.42;72.83
21520;BME280;10921;53.614;9.882;2022-11-11T12:30:50;102657.44;;;14.28;72.65
21520;BME280;10921;53.614;9.882;2022-11-11T12:44:55;102657.09;;;14.32;73.61
21520;BME280;10921;53.614;9.882;2022-11-11T12:47:29;102664.63;;;14.38;72.88
21520;BME280;10921;53.614;9.882;2022-11-11T12:50:20;102659.91;;;14.42;73.15
21520;BME280;10921;53.614;9.882;2022-11-11T12:58:41;102665.28;;;14.42;72.22
21520;BME280;10921;53.614;9.882;2022-11-11T13:01:31;102667.44;;;14.37;72.71
21520;BME280;10921;53.614;9.882;2022-11-11T13:04:28;102671.84;;;14.38;72.49
21520;BME280;10921;53.614;9.882;2022-11-11T13:07:16;102669.28;;;14.36;73.10
21520;BME280;10921;53.614;9.882;2022-11-11T13:10:07;102678.25;;;14.48;72.19
21520;BME280;10921;53.614;9.882;2022-11-11T13:15:41;102670.41;;;14.34;71.73
21520;BME280;10921;53.614;9.882;2022-11-11T13:18:14;102668.81;;;14.31;72.46
21520;BME280;10921;53.614;9.882;2022-11-11T13:23:11;102652.59;;;14.33;71.88
21520;BME280;10921;53.614;9.882;2022-11-11T13:25:44;102689.44;;;14.31;72.36
21520;BME280;10921;53.614;9.882;2022-11-11T13:28:22;102671.63;;;14.30;72.12
21520;BME280;10921;53.614;9.882;2022-11-11T13:33:40;102684.81;;;14.33;72.63
21520;BME280;10921;53.614;9.882;2022-11-11T13:36:12;102694.56;;;14.34;72.55
21520;BME280;10921;53.614;9.882;2022-11-11T13:38:57;102682.00;;;14.34;72.83
21520;BME280;10921;53.614;9.882;2022-11-11T13:41:29;102696.28;;;14.35;72.57
21520;BME280;10921;53.614;9.882;2022-11-11T13:43:59;102684.41;;;14.37;72.48
21520;BME280;10921;53.614;9.882;2022-11-11T13:46:43;102693.97;;;14.41;72.69
21520;BME280;10921;53.614;9.882;2022-11-11T13:49:25;102696.66;;;14.41;72.61
21520;BME280;10921;53.614;9.882;2022-11-11T13:52:21;102683.97;;;14.43;72.46
21520;BME280;10921;53.614;9.882;2022-11-11T13:55:06;102703.00;;;14.40;72.51
21520;BME280;10921;53.614;9.882;2022-11-11T13:57:46;102701.38;;;14.38;72.60
21520;BME280;10921;53.614;9.882;2022-11-11T14:02:47;102704.84;;;14.40;72.00
21520;BME280;10921;53.614;9.882;2022-11-11T14:05:15;102708.16;;;14.43;72.00
21520;BME280;10921;53.614;9.882;2022-11-11T14:10:09;102696.88;;;14.38;71.88
21520;BME280;10921;53.614;9.882;2022-11-11T14:13:05;102687.53;;;14.44;71.71
21520;BME280;10921;53.614;9.882;2022-11-11T14:15:47;102699.13;;;14.45;71.73
21520;BME280;10921;53.614;9.882;2022-11-11T14:20:48;102710.09;;;14.53;72.04
21520;BME280;10921;53.614;9.882;2022-11-11T14:23:42;102711.56;;;14.57;72.47
21520;BME280;10921;53.614;9.882;2022-11-11T14:28:56;102710.09;;;14.53;72.06
21520;BME280;10921;53.614;9.882;2022-11-11T14:31:35;102695.56;;;14.44;72.30
21520;BME280;10921;53.614;9.882;2022-11-11T14:34:32;102707.16;;;14.56;72.49
21520;BME280;10921;53.614;9.882;2022-11-11T14:39:52;102729.06;;;14.51;72.54
21520;BME280;10921;53.614;9.882;2022-11-11T14:45:03;102724.03;;;14.47;72.61
21520;BME280;10921;53.614;9.882;2022-11-11T14:47:38;102729.63;;;14.43;72.73